Glocester, Rhode Island
Current Conditions -  °F | °C
As of 9:35 PM on Sunday 25 Jan 2015 (Local Time) from KSFZ Reporting Station
Clear Clear  
Wind Chill: -10°   Ceiling: Unl
Heat Index: -6°   Visibility: 10mi
Dew Point: -17°   Wind: 6mph
Humidity: 42%   Direction: 320°NW
Pressure: 29.93"   Gusts: NA
Location:  41.8875°N, 71.5975°W
Report Text: KSFZ 260235Z 32005KT 10SM CLR M06/M17 A2993 RMK AO1
Loading
Personal Weather Stations






























Interactive Weather Map New forecast layout! Learn more

10-Day Weather Forecast

Advertisements
Track Severe Weather on mobile